createdAt,value
2022-11-14T00:01:25.930Z,7.60
2022-11-14T00:03:55.395Z,7.63
2022-11-14T00:06:24.521Z,7.10
2022-11-14T00:08:52.581Z,8.00
2022-11-14T00:11:20.686Z,7.10
2022-11-14T00:13:48.732Z,6.60
2022-11-14T00:16:16.873Z,7.07
2022-11-14T00:18:44.999Z,7.00
2022-11-14T00:21:14.474Z,6.80
2022-11-14T00:23:42.597Z,6.93
2022-11-14T00:26:10.760Z,6.47
2022-11-14T00:28:38.824Z,7.50
2022-11-14T00:31:07.312Z,6.00
2022-11-14T00:33:35.394Z,6.70
2022-11-14T00:36:03.518Z,6.50
2022-11-14T00:38:33.031Z,6.20
2022-11-14T00:41:01.130Z,7.00
2022-11-14T00:43:29.232Z,7.17
2022-11-14T00:45:57.379Z,6.20
2022-11-14T00:48:25.533Z,6.40
2022-11-14T00:50:53.574Z,6.53
2022-11-14T00:53:21.741Z,7.23
2022-11-14T00:55:51.205Z,6.07
2022-11-14T00:58:19.377Z,6.53
2022-11-14T01:00:47.546Z,6.10
2022-11-14T01:03:15.780Z,6.20
2022-11-14T01:05:44.524Z,6.47
2022-11-14T01:08:13.962Z,6.17
2022-11-14T01:10:43.327Z,6.00
2022-11-14T01:13:12.981Z,5.73
2022-11-14T01:15:41.533Z,6.70
2022-11-14T01:18:12.142Z,6.20
2022-11-14T01:20:40.881Z,6.00
2022-11-14T01:23:09.866Z,5.70
2022-11-14T01:25:39.609Z,6.00
2022-11-14T01:28:09.023Z,6.27
2022-11-14T01:30:38.874Z,6.60
2022-11-14T01:33:07.079Z,6.50
2022-11-14T01:35:37.140Z,7.00
2022-11-14T01:38:06.569Z,6.20
2022-11-14T01:40:34.948Z,6.20
2022-11-14T01:43:25.692Z,5.60
2022-11-14T01:45:57.561Z,6.07
2022-11-14T01:48:32.165Z,6.47
2022-11-14T01:51:04.318Z,6.07
2022-11-14T01:53:32.731Z,6.10
2022-11-14T01:56:05.482Z,6.37
2022-11-14T01:58:36.511Z,6.20
2022-11-14T02:01:06.362Z,5.90
2022-11-14T02:03:36.643Z,6.37
2022-11-14T02:06:07.414Z,6.40
2022-11-14T02:08:36.228Z,5.27
2022-11-14T02:11:04.331Z,5.73
2022-11-14T02:13:32.568Z,5.60
2022-11-14T02:16:00.709Z,6.30
2022-11-14T02:18:30.348Z,6.20
2022-11-14T02:21:00.020Z,5.57
2022-11-14T02:23:29.668Z,5.33
2022-11-14T02:25:58.100Z,5.00
2022-11-14T02:28:27.615Z,6.40
2022-11-14T02:30:56.237Z,5.20
2022-11-14T02:33:24.487Z,5.70
2022-11-14T02:35:52.655Z,4.80
2022-11-14T02:38:22.037Z,5.47
2022-11-14T02:40:50.220Z,5.27
2022-11-14T02:43:18.285Z,4.97
2022-11-14T02:45:46.470Z,5.97
2022-11-14T02:48:14.745Z,5.50
2022-11-14T02:50:42.817Z,6.10
2022-11-14T02:53:10.961Z,5.10
2022-11-14T02:55:40.465Z,5.30
2022-11-14T02:58:08.516Z,4.87
2022-11-14T03:00:38.549Z,5.90
2022-11-14T03:03:16.142Z,5.33
2022-11-14T03:05:44.238Z,5.90
2022-11-14T03:08:12.391Z,5.57
2022-11-14T03:10:41.908Z,5.20
2022-11-14T03:13:09.973Z,5.10
2022-11-14T03:15:38.643Z,5.80
2022-11-14T03:18:06.740Z,5.10
2022-11-14T03:20:35.490Z,5.27
2022-11-14T03:23:04.172Z,5.63
2022-11-14T03:25:32.486Z,5.00
2022-11-14T03:28:01.941Z,6.10
2022-11-14T03:30:30.089Z,6.30
2022-11-14T03:32:58.347Z,5.83
2022-11-14T03:35:26.475Z,5.00
2022-11-14T03:37:56.638Z,5.60
2022-11-14T03:40:25.068Z,5.00
2022-11-14T03:42:53.128Z,5.43
2022-11-14T03:45:22.620Z,5.40
2022-11-14T03:47:50.702Z,5.57
2022-11-14T03:50:19.015Z,5.57
2022-11-14T03:52:49.965Z,5.47
2022-11-14T03:55:18.394Z,5.73
2022-11-14T03:57:46.531Z,5.50
2022-11-14T04:00:15.206Z,6.27
2022-11-14T04:02:44.645Z,5.50
2022-11-14T04:05:12.818Z,5.60
2022-11-14T04:07:41.083Z,5.47
2022-11-14T04:10:09.811Z,5.23
2022-11-14T04:12:37.954Z,5.40
2022-11-14T04:15:07.089Z,4.80
2022-11-14T04:17:39.609Z,5.23
2022-11-14T04:20:10.854Z,5.03
2022-11-14T04:22:39.161Z,4.97
2022-11-14T04:25:08.431Z,5.10
2022-11-14T04:27:36.982Z,5.63
2022-11-14T04:30:05.992Z,5.20
2022-11-14T04:32:34.298Z,5.10
2022-11-14T04:35:02.653Z,5.47
2022-11-14T04:37:32.131Z,5.20
2022-11-14T04:40:02.477Z,4.60
2022-11-14T04:42:30.862Z,5.10
2022-11-14T04:44:59.036Z,4.77
2022-11-14T04:47:27.172Z,4.60
2022-11-14T04:49:55.237Z,4.50
2022-11-14T04:52:23.360Z,4.93
2022-11-14T04:54:52.794Z,5.03
2022-11-14T04:57:20.933Z,5.67
2022-11-14T04:59:49.018Z,4.43
2022-11-14T05:02:17.079Z,4.17
2022-11-14T05:04:47.153Z,4.37
2022-11-14T05:07:16.317Z,4.53
2022-11-14T05:09:44.518Z,4.50
2022-11-14T05:12:14.027Z,4.20
2022-11-14T05:14:42.099Z,4.90
2022-11-14T05:17:10.180Z,4.60
2022-11-14T05:19:38.339Z,4.93
2022-11-14T05:22:06.412Z,5.30
2022-11-14T05:24:34.516Z,5.27
2022-11-14T05:27:02.701Z,4.80
2022-11-14T05:29:32.222Z,5.77
2022-11-14T05:32:00.721Z,4.57
2022-11-14T05:34:29.082Z,4.60
2022-11-14T05:36:57.214Z,5.50
2022-11-14T05:39:25.333Z,4.93
2022-11-14T05:41:53.465Z,4.47
2022-11-14T05:44:21.537Z,5.20
2022-11-14T05:46:51.027Z,5.17
2022-11-14T05:49:21.947Z,4.83
2022-11-14T05:51:50.508Z,5.20
2022-11-14T05:54:18.600Z,5.30
2022-11-14T05:56:46.770Z,4.50
2022-11-14T05:59:14.847Z,5.10
2022-11-14T06:01:42.953Z,6.10
2022-11-14T06:04:14.050Z,4.80
2022-11-14T06:06:42.314Z,5.53
2022-11-14T06:09:10.409Z,4.67
2022-11-14T06:11:38.499Z,4.60
2022-11-14T06:14:10.523Z,5.07
2022-11-14T06:16:38.976Z,5.27
2022-11-14T06:19:07.131Z,4.87
2022-11-14T06:21:36.542Z,5.60
2022-11-14T06:24:06.019Z,4.53
2022-11-14T06:26:34.306Z,5.93
2022-11-14T06:29:02.454Z,4.93
2022-11-14T06:31:30.598Z,5.50
2022-11-14T06:33:58.741Z,4.90
2022-11-14T06:36:26.946Z,5.40
2022-11-14T06:38:56.435Z,5.00
2022-11-14T06:41:24.902Z,5.30
2022-11-14T06:43:54.657Z,5.30
2022-11-14T06:46:23.616Z,4.90
2022-11-14T06:48:52.413Z,6.33
2022-11-14T06:51:20.800Z,5.30
2022-11-14T06:53:48.914Z,5.27
2022-11-14T06:56:20.154Z,6.00
2022-11-14T06:58:49.886Z,5.90
2022-11-14T07:01:19.692Z,6.90
2022-11-14T07:03:48.151Z,6.43
2022-11-14T07:06:19.259Z,6.17
2022-11-14T07:08:47.551Z,6.50
2022-11-14T07:11:23.561Z,6.23
2022-11-14T07:13:51.742Z,6.40
2022-11-14T07:16:20.153Z,6.77
2022-11-14T07:18:48.272Z,6.00
2022-11-14T07:21:16.401Z,6.90
2022-11-14T07:23:44.458Z,6.90
2022-11-14T07:26:13.395Z,7.83
2022-11-14T07:28:48.124Z,7.60
2022-11-14T07:31:20.360Z,7.37
2022-11-14T07:33:49.162Z,7.87
2022-11-14T07:36:18.528Z,8.00
2022-11-14T07:38:46.624Z,7.43
2022-11-14T07:41:16.790Z,8.10
2022-11-14T07:43:46.414Z,10.03
2022-11-14T07:46:16.434Z,8.80
2022-11-14T07:48:45.389Z,8.30
2022-11-14T07:51:16.816Z,8.30
2022-11-14T07:53:45.728Z,8.07
2022-11-14T07:56:14.027Z,8.50
2022-11-14T07:58:43.151Z,8.80
2022-11-14T08:01:14.310Z,9.00
2022-11-14T08:03:45.882Z,9.37
2022-11-14T08:06:16.906Z,8.53
2022-11-14T08:08:45.047Z,10.00
2022-11-14T08:11:15.075Z,9.87
2022-11-14T08:13:51.364Z,10.03
2022-11-14T08:16:20.848Z,9.33
2022-11-14T08:18:48.931Z,11.17
2022-11-14T08:21:17.063Z,10.10
2022-11-14T08:23:45.745Z,9.60
2022-11-14T08:26:13.867Z,9.87
2022-11-14T08:28:41.984Z,10.17
2022-11-14T08:31:10.342Z,10.53
2022-11-14T08:33:40.364Z,10.90
2022-11-14T08:36:09.109Z,11.80
2022-11-14T08:38:37.439Z,12.13
2022-11-14T08:41:05.947Z,12.37
2022-11-14T08:43:34.482Z,11.50
2022-11-14T08:46:04.293Z,11.50
2022-11-14T08:48:33.571Z,12.40
2022-11-14T08:51:06.093Z,13.90
2022-11-14T08:53:36.190Z,11.90
2022-11-14T08:56:04.948Z,12.63
2022-11-14T08:58:33.849Z,13.30
2022-11-14T09:01:02.885Z,13.50
2022-11-14T09:03:31.054Z,13.20
2022-11-14T09:05:59.487Z,13.00
2022-11-14T09:08:29.914Z,11.57
2022-11-14T09:11:05.332Z,12.07
2022-11-14T09:13:34.646Z,13.53
2022-11-14T09:16:03.046Z,13.33
2022-11-14T09:18:32.268Z,12.70
2022-11-14T09:21:01.822Z,13.03
2022-11-14T09:23:31.992Z,13.03
2022-11-14T09:26:03.917Z,14.13
2022-11-14T09:28:32.091Z,13.60
2022-11-14T09:31:03.521Z,14.90
2022-11-14T09:33:32.053Z,13.27
2022-11-14T09:36:00.706Z,13.93
2022-11-14T09:38:32.782Z,13.80
2022-11-14T09:41:23.748Z,13.43
2022-11-14T09:44:20.703Z,13.80
2022-11-14T09:46:53.581Z,14.23
2022-11-14T09:49:27.974Z,14.03
2022-11-14T09:52:02.143Z,13.03
2022-11-14T09:54:46.782Z,13.40
2022-11-14T09:57:18.801Z,13.30
2022-11-14T09:59:47.289Z,13.13
2022-11-14T10:02:26.573Z,13.20
2022-11-14T10:05:08.001Z,13.80
2022-11-14T10:07:46.445Z,14.20
2022-11-14T10:10:25.107Z,13.00
2022-11-14T10:13:04.625Z,13.30
2022-11-14T10:15:42.615Z,12.50
2022-11-14T10:18:24.359Z,13.70
2022-11-14T10:20:56.234Z,11.63
2022-11-14T10:23:34.088Z,13.77
2022-11-14T10:26:15.336Z,13.27
2022-11-14T10:28:55.129Z,12.87
2022-11-14T10:31:34.980Z,14.30
2022-11-14T10:34:07.098Z,13.27
2022-11-14T10:36:55.191Z,13.80
2022-11-14T10:39:27.604Z,12.03
2022-11-14T10:42:05.986Z,14.63
2022-11-14T10:44:43.910Z,14.00
2022-11-14T10:47:15.550Z,14.03
2022-11-14T10:49:47.849Z,12.53
2022-11-14T10:52:19.547Z,13.13
2022-11-14T10:54:51.286Z,13.40
2022-11-14T10:57:21.616Z,13.70
2022-11-14T10:59:51.195Z,14.43
2022-11-14T11:02:19.407Z,15.43
2022-11-14T11:04:47.569Z,14.40
2022-11-14T11:07:42.241Z,14.40
2022-11-14T11:10:40.388Z,12.53
2022-11-14T11:13:13.219Z,13.50
2022-11-14T11:15:44.202Z,14.53
2022-11-14T11:18:28.659Z,15.50
2022-11-14T11:21:06.420Z,14.67
2022-11-14T11:23:35.099Z,14.00
2022-11-14T11:26:07.686Z,13.30
2022-11-14T11:28:37.244Z,14.77
2022-11-14T11:31:08.887Z,13.27
2022-11-14T11:33:38.222Z,14.43
2022-11-14T13:35:04.259Z,15.83
2022-11-14T13:37:49.554Z,14.27
2022-11-14T13:40:24.398Z,14.50
2022-11-14T13:43:01.791Z,14.53
2022-11-14T13:45:51.407Z,15.07
2022-11-14T13:48:55.176Z,14.50
2022-11-14T13:51:42.728Z,13.50
2022-11-14T13:54:17.543Z,13.70
2022-11-14T13:56:58.900Z,13.63
2022-11-14T13:59:54.325Z,14.30
2022-11-14T14:02:46.258Z,13.83
2022-11-14T14:05:26.283Z,12.90
2022-11-14T14:08:04.789Z,14.87
2022-11-14T14:10:42.489Z,14.60
2022-11-14T14:13:23.210Z,15.07
2022-11-14T14:15:59.379Z,14.50
2022-11-14T14:18:44.416Z,15.50
2022-11-14T14:21:22.354Z,14.17
2022-11-14T14:24:03.550Z,13.67
2022-11-14T14:26:40.357Z,15.50
2022-11-14T14:29:23.568Z,14.63
2022-11-14T14:31:52.111Z,14.67
2022-11-14T14:34:25.335Z,15.00
2022-11-14T14:36:55.455Z,15.30
2022-11-14T14:39:26.401Z,15.30
2022-11-14T14:41:56.934Z,15.13
2022-11-14T14:44:27.856Z,17.57
2022-11-14T14:46:56.156Z,14.97
2022-11-14T14:49:28.018Z,16.00
2022-11-14T14:51:58.767Z,16.23
2022-11-14T14:54:30.722Z,16.37
2022-11-14T14:57:01.054Z,16.97
2022-11-14T14:59:31.793Z,16.00
2022-11-14T15:02:00.013Z,15.13
2022-11-14T15:04:30.117Z,15.33
2022-11-14T15:06:58.403Z,15.10
2022-11-14T15:09:29.765Z,17.00
2022-11-14T15:12:00.364Z,15.57
2022-11-14T15:14:32.334Z,13.83
2022-11-14T15:17:01.289Z,15.13
2022-11-14T15:19:36.458Z,14.97
2022-11-14T15:22:06.908Z,14.93
2022-11-14T15:24:36.402Z,14.93
2022-11-14T15:27:06.406Z,14.37
2022-11-14T15:29:34.678Z,14.20
2022-11-14T15:32:05.279Z,14.90
2022-11-14T15:34:35.194Z,13.30
2022-11-14T15:37:23.788Z,12.80
2022-11-14T15:39:53.457Z,14.67
2022-11-14T15:42:28.798Z,14.90
2022-11-14T15:44:57.405Z,13.10
2022-11-14T15:47:28.142Z,13.20
2022-11-14T15:50:02.331Z,14.60
2022-11-14T15:52:37.250Z,13.40
2022-11-14T15:55:13.938Z,14.93
2022-11-14T15:57:42.083Z,15.30
2022-11-14T16:00:13.866Z,14.03
2022-11-14T16:02:46.370Z,13.43
2022-11-14T16:05:16.532Z,14.47
2022-11-14T16:07:44.759Z,14.73
2022-11-14T16:10:17.136Z,13.60
2022-11-14T16:12:49.486Z,13.50
2022-11-14T16:15:21.654Z,14.40
2022-11-14T16:17:51.279Z,14.43
2022-11-14T16:20:21.254Z,12.53
2022-11-14T16:22:50.623Z,13.37
2022-11-14T16:25:22.366Z,14.30
2022-11-14T16:27:50.487Z,12.63
2022-11-14T16:30:20.656Z,13.00
2022-11-14T16:32:50.497Z,12.60
2022-11-14T16:35:20.330Z,14.33
2022-11-14T16:37:49.352Z,11.30
2022-11-14T16:40:21.389Z,12.93
2022-11-14T16:42:50.230Z,12.20
2022-11-14T16:45:20.292Z,13.80
2022-11-14T16:47:48.552Z,13.23
2022-11-14T16:50:17.098Z,11.70
2022-11-14T16:52:45.173Z,12.93
2022-11-14T16:55:14.055Z,12.87
2022-11-14T16:57:43.490Z,12.93
2022-11-14T17:00:13.576Z,12.27
2022-11-14T17:02:41.885Z,11.97
2022-11-14T17:05:10.317Z,10.87
2022-11-14T17:07:38.585Z,11.50
2022-11-14T17:10:07.852Z,12.40
2022-11-14T17:12:35.965Z,10.50
2022-11-14T17:15:06.296Z,10.83
2022-11-14T17:17:34.561Z,10.80
2022-11-14T17:20:02.791Z,11.00
2022-11-14T17:22:30.877Z,11.50
2022-11-14T17:24:58.957Z,10.90
2022-11-14T17:27:27.059Z,11.20
2022-11-14T17:29:55.127Z,10.70
2022-11-14T17:32:24.541Z,10.97
2022-11-14T17:34:52.618Z,10.10
2022-11-14T17:37:20.952Z,9.90
2022-11-14T17:39:49.092Z,10.83
2022-11-14T17:42:17.156Z,10.20
2022-11-14T17:44:45.209Z,9.87
2022-11-14T17:47:13.343Z,10.20
2022-11-14T17:49:42.862Z,9.27
2022-11-14T17:52:11.554Z,10.20
2022-11-14T17:54:39.690Z,9.90
2022-11-14T17:57:08.302Z,9.77
2022-11-14T17:59:37.194Z,8.43
2022-11-14T18:02:05.448Z,8.80
2022-11-14T18:04:33.606Z,10.00
2022-11-14T18:07:03.156Z,9.60
2022-11-14T18:09:31.569Z,9.90
2022-11-14T18:11:59.694Z,9.37
2022-11-14T18:14:27.784Z,8.70
2022-11-14T18:17:12.281Z,9.93
2022-11-14T18:19:41.179Z,10.37
2022-11-14T18:22:10.686Z,9.00
2022-11-14T18:24:41.358Z,8.97
2022-11-14T18:27:09.388Z,8.10
2022-11-14T18:29:37.510Z,8.80
2022-11-14T18:32:05.994Z,7.80
2022-11-14T18:34:36.728Z,9.70
2022-11-14T18:37:04.932Z,8.80
2022-11-14T18:39:34.422Z,7.37
2022-11-14T18:42:02.500Z,8.73
2022-11-14T18:44:30.907Z,7.83
2022-11-14T18:46:58.967Z,8.00
2022-11-14T18:49:28.340Z,8.80
2022-11-14T18:51:56.707Z,7.03
2022-11-14T18:54:24.885Z,7.60
2022-11-14T18:56:54.436Z,8.97
2022-11-14T18:59:22.541Z,8.23
2022-11-14T19:01:50.707Z,7.73
2022-11-14T19:04:19.618Z,8.70
2022-11-14T19:06:47.901Z,8.80
2022-11-14T19:09:22.065Z,8.17
2022-11-14T19:12:07.698Z,9.07
2022-11-14T19:14:37.147Z,8.70
2022-11-14T19:17:06.993Z,8.93
2022-11-14T19:19:35.082Z,9.07
2022-11-14T19:22:03.956Z,8.77
2022-11-14T19:24:32.275Z,8.60
2022-11-14T19:27:00.354Z,9.00
2022-11-14T19:29:28.446Z,9.10
2022-11-14T19:31:57.814Z,7.87
2022-11-14T19:34:25.888Z,8.07
2022-11-14T19:37:02.024Z,8.10
2022-11-14T19:39:30.450Z,8.70
2022-11-14T19:41:58.545Z,7.63
2022-11-14T19:44:26.658Z,9.07
2022-11-14T19:46:54.939Z,7.97
2022-11-14T19:49:24.428Z,9.37
2022-11-14T19:51:52.610Z,7.27
2022-11-14T19:54:20.830Z,8.80
2022-11-14T19:56:48.968Z,8.93
2022-11-14T19:59:22.896Z,7.27
2022-11-14T20:01:55.164Z,8.07
2022-11-14T20:04:24.962Z,9.60
2022-11-14T20:06:53.171Z,9.63
2022-11-14T20:09:21.371Z,9.80
2022-11-14T20:11:49.537Z,8.50
2022-11-14T20:14:17.844Z,8.47
2022-11-14T20:16:46.680Z,8.37
2022-11-14T20:19:15.991Z,9.10
2022-11-14T20:21:45.555Z,9.30
2022-11-14T20:24:17.527Z,8.77
2022-11-14T20:26:45.950Z,8.77
2022-11-14T20:29:14.119Z,8.20
2022-11-14T20:31:42.162Z,7.93
2022-11-14T20:34:11.969Z,9.80
2022-11-14T20:37:08.720Z,7.93
2022-11-14T20:39:29.421Z,8.07
2022-11-14T20:41:57.633Z,7.40
2022-11-14T20:44:25.805Z,9.00
2022-11-14T20:46:55.411Z,8.13
2022-11-14T20:49:23.525Z,9.00
2022-11-14T20:51:51.622Z,7.00
2022-11-14T20:54:19.728Z,7.40
2022-11-14T20:56:49.161Z,7.30
2022-11-14T20:59:17.233Z,7.83
2022-11-14T21:01:45.385Z,7.43
2022-11-14T21:04:13.503Z,7.70
2022-11-14T21:06:41.642Z,8.20
2022-11-14T21:09:10.538Z,7.77
2022-11-14T21:11:38.650Z,9.23
2022-11-14T21:14:09.061Z,8.43
2022-11-14T21:16:39.712Z,8.50
2022-11-14T21:19:08.457Z,8.23
2022-11-14T21:21:38.635Z,7.30
2022-11-14T21:24:07.700Z,7.60
2022-11-14T21:26:39.070Z,7.90
2022-11-14T21:29:12.343Z,7.77
2022-11-14T21:31:41.913Z,8.37
2022-11-14T21:34:12.992Z,8.00
2022-11-14T21:36:46.067Z,7.63
2022-11-14T21:39:16.458Z,6.70
2022-11-14T21:41:45.682Z,8.20
2022-11-14T21:44:17.569Z,7.80
2022-11-14T21:46:48.379Z,8.77
2022-11-14T21:49:17.601Z,6.70
2022-11-14T21:51:45.772Z,8.53
2022-11-14T21:54:13.921Z,6.90
2022-11-14T21:56:41.986Z,7.03
2022-11-14T21:59:14.834Z,7.50
2022-11-14T22:02:04.001Z,7.30
2022-11-14T22:04:32.878Z,8.07
2022-11-14T22:07:02.906Z,7.37
2022-11-14T22:09:31.419Z,7.77
2022-11-14T22:12:00.129Z,7.70
2022-11-14T22:14:29.163Z,7.13
2022-11-14T22:16:58.882Z,7.13
2022-11-14T22:19:27.043Z,6.93
2022-11-14T22:21:55.343Z,7.63
2022-11-14T22:24:23.600Z,6.67
2022-11-14T22:26:51.778Z,6.70
2022-11-14T22:29:19.982Z,7.23
2022-11-14T22:31:48.140Z,6.97
2022-11-14T22:34:17.584Z,6.67
2022-11-14T22:36:45.705Z,6.40
2022-11-14T22:39:13.761Z,6.67
2022-11-14T22:41:41.863Z,6.30
2022-11-14T22:44:09.956Z,6.50
2022-11-14T22:46:38.020Z,6.73
2022-11-14T22:49:06.101Z,6.47
2022-11-14T22:51:35.510Z,6.90
2022-11-14T22:54:03.551Z,6.20
2022-11-14T22:56:31.616Z,5.90
2022-11-14T22:59:00.519Z,6.47
2022-11-14T23:01:31.029Z,6.60
2022-11-14T23:04:01.057Z,7.63
2022-11-14T23:06:30.288Z,6.53
2022-11-14T23:09:00.295Z,7.07
2022-11-14T23:11:30.314Z,6.80
2022-11-14T23:13:59.874Z,7.50
2022-11-14T23:16:30.106Z,7.27
2022-11-14T23:18:59.646Z,6.53
2022-11-14T23:21:29.137Z,6.50
2022-11-14T23:24:00.092Z,6.30
2022-11-14T23:26:29.770Z,6.50
2022-11-14T23:28:58.178Z,7.90
2022-11-14T23:31:27.058Z,6.60
2022-11-14T23:33:57.697Z,7.27
2022-11-14T23:36:25.893Z,6.60
2022-11-14T23:38:54.929Z,6.50
2022-11-14T23:41:26.601Z,6.50
2022-11-14T23:43:54.776Z,7.00
2022-11-14T23:46:22.954Z,6.73
2022-11-14T23:48:53.165Z,6.30
2022-11-14T23:51:21.297Z,7.00
2022-11-14T23:53:49.448Z,6.90
2022-11-14T23:56:17.633Z,6.40
2022-11-14T23:58:47.091Z,7.20
